createdAt,value
2022-10-30T00:00:09.262Z,21.23
2022-10-30T00:02:12.206Z,20.43
2022-10-30T00:04:15.373Z,19.53
2022-10-30T00:08:26.426Z,21.00
2022-10-30T00:10:29.325Z,19.20
2022-10-30T00:12:32.117Z,19.37
2022-10-30T00:14:36.376Z,20.43
2022-10-30T00:16:39.022Z,19.10
2022-10-30T00:18:43.101Z,18.50
2022-10-30T00:20:45.995Z,20.90
2022-10-30T00:22:48.739Z,22.47
2022-10-30T00:24:51.693Z,24.33
2022-10-30T00:26:54.581Z,23.80
2022-10-30T00:28:57.535Z,20.87
2022-10-30T00:31:02.682Z,16.07
2022-10-30T00:33:05.904Z,20.83
2022-10-30T00:35:09.309Z,21.63
2022-10-30T00:37:12.316Z,24.27
2022-10-30T00:39:15.305Z,17.47
2022-10-30T00:41:20.474Z,21.57
2022-10-30T00:43:32.606Z,18.43
2022-10-30T00:45:35.554Z,18.95
2022-10-30T00:47:42.703Z,19.83
2022-10-30T00:49:52.424Z,21.40
2022-10-30T00:51:56.028Z,18.33
2022-10-30T00:54:01.317Z,19.87
2022-10-30T00:56:06.985Z,22.63
2022-10-30T00:58:13.911Z,23.53
2022-10-30T01:00:18.351Z,22.77
2022-10-30T01:02:23.099Z,19.60
2022-10-30T01:04:30.168Z,22.47
2022-10-30T01:06:34.826Z,22.67
2022-10-30T01:08:38.994Z,26.13
2022-10-30T01:10:42.112Z,18.90
2022-10-30T01:12:46.183Z,20.90
2022-10-30T01:14:52.763Z,20.83
2022-10-30T01:17:15.812Z,20.80
2022-10-30T01:19:25.427Z,15.43
2022-10-30T01:21:40.697Z,17.70
2022-10-30T01:23:54.988Z,18.13
2022-10-30T01:26:08.737Z,21.87
2022-10-30T01:28:27.809Z,15.80
2022-10-30T01:30:44.607Z,20.80
2022-10-30T01:33:01.443Z,18.50
2022-10-30T01:35:09.086Z,21.40
2022-10-30T01:37:18.940Z,28.87
2022-10-30T01:39:25.077Z,26.53
2022-10-30T01:41:27.743Z,32.63
2022-10-30T01:43:30.639Z,27.60
2022-10-30T01:45:55.850Z,27.77
2022-10-30T01:48:23.097Z,32.63
2022-10-30T01:50:35.543Z,27.07
2022-10-30T01:52:45.649Z,29.87
2022-10-30T01:54:54.425Z,30.27
2022-10-30T01:57:05.633Z,25.13
2022-10-30T01:59:15.474Z,22.73
2022-10-30T02:01:19.433Z,23.63
2022-10-30T02:03:23.190Z,22.23
2022-10-30T02:05:32.690Z,20.20
2022-10-30T02:07:37.198Z,18.87
2022-10-30T02:09:41.687Z,21.53
2022-10-30T02:11:46.912Z,22.47
2022-10-30T02:13:50.847Z,21.00
2022-10-30T02:15:54.166Z,21.33
2022-10-30T02:17:58.012Z,20.77
2022-10-30T02:20:00.890Z,19.90
2022-10-30T02:22:05.612Z,27.90
2022-10-30T02:24:08.800Z,17.07
2022-10-30T02:26:11.750Z,20.50
2022-10-30T02:28:14.451Z,17.43
2022-10-30T02:30:17.661Z,19.37
2022-10-30T02:32:20.572Z,15.67
2022-10-30T02:34:23.320Z,16.20
2022-10-30T02:36:26.040Z,22.23
2022-10-30T02:38:31.504Z,17.10
2022-10-30T02:40:34.225Z,16.60
2022-10-30T02:42:37.406Z,24.23
2022-10-30T02:44:40.076Z,22.17
2022-10-30T02:46:42.807Z,19.17
2022-10-30T02:48:45.467Z,18.93
2022-10-30T02:50:48.162Z,23.27
2022-10-30T02:52:51.166Z,18.50
2022-10-30T02:54:55.144Z,21.67
2022-10-30T02:56:57.841Z,22.70
2022-10-30T02:59:00.561Z,15.93
2022-10-30T03:01:07.558Z,16.70
2022-10-30T03:03:10.325Z,17.00
2022-10-30T03:05:13.066Z,18.87
2022-10-30T03:07:15.770Z,19.63
2022-10-30T03:09:18.527Z,20.73
2022-10-30T03:11:22.812Z,14.43
2022-10-30T03:13:25.515Z,16.73
2022-10-30T03:15:28.186Z,16.43
2022-10-30T03:17:31.246Z,14.90
2022-10-30T03:19:34.119Z,18.17
2022-10-30T03:21:37.004Z,22.63
2022-10-30T03:23:39.888Z,19.90
2022-10-30T03:25:42.539Z,18.93
2022-10-30T03:27:46.552Z,17.50
2022-10-30T03:29:49.315Z,19.37
2022-10-30T03:31:52.307Z,16.50
2022-10-30T03:33:54.976Z,17.93
2022-10-30T03:35:57.761Z,20.37
2022-10-30T03:38:00.652Z,17.27
2022-10-30T03:40:03.375Z,17.20
2022-10-30T03:42:06.337Z,20.63
2022-10-30T03:44:10.390Z,20.77
2022-10-30T03:46:13.596Z,21.50
2022-10-30T03:48:17.092Z,20.63
2022-10-30T03:50:19.841Z,21.80
2022-10-30T03:52:22.512Z,22.40
2022-10-30T03:54:25.211Z,19.73
2022-10-30T03:56:27.865Z,17.10
2022-10-30T03:58:30.878Z,14.87
2022-10-30T04:00:35.931Z,18.63
2022-10-30T04:02:38.606Z,19.10
2022-10-30T04:04:41.682Z,23.47
2022-10-30T04:06:44.805Z,15.90
2022-10-30T04:08:47.530Z,15.43
2022-10-30T04:10:50.552Z,22.43
2022-10-30T04:12:54.675Z,22.20
2022-10-30T04:14:57.757Z,17.30
2022-10-30T04:17:02.072Z,18.93
2022-10-30T04:19:05.285Z,20.57
2022-10-30T04:21:07.978Z,18.93
2022-10-30T04:23:15.242Z,20.47
2022-10-30T04:25:18.493Z,18.90
2022-10-30T04:27:21.527Z,15.97
2022-10-30T04:29:24.457Z,14.17
2022-10-30T04:31:27.469Z,16.70
2022-10-30T04:33:31.518Z,13.60
2022-10-30T04:35:37.387Z,16.23
2022-10-30T04:37:40.593Z,17.60
2022-10-30T04:39:46.398Z,14.87
2022-10-30T04:41:49.536Z,17.50
2022-10-30T04:43:52.821Z,20.53
2022-10-30T04:45:55.745Z,16.83
2022-10-30T04:48:02.532Z,13.23
2022-10-30T04:50:08.054Z,15.57
2022-10-30T04:52:10.962Z,19.10
2022-10-30T04:54:13.883Z,15.57
2022-10-30T04:56:17.348Z,16.73
2022-10-30T04:58:20.198Z,16.47
2022-10-30T05:00:23.070Z,15.77
2022-10-30T05:02:26.456Z,17.30
2022-10-30T05:04:29.234Z,13.10
2022-10-30T05:06:34.025Z,16.80
2022-10-30T05:08:36.878Z,14.03
2022-10-30T05:10:40.406Z,17.57
2022-10-30T05:12:43.850Z,16.27
2022-10-30T05:14:46.746Z,20.20
2022-10-30T05:16:49.397Z,18.87
2022-10-30T05:18:52.293Z,18.90
2022-10-30T05:20:55.173Z,19.00
2022-10-30T05:23:00.764Z,27.43
2022-10-30T05:25:03.459Z,17.33
2022-10-30T05:27:06.214Z,16.90
2022-10-30T05:29:09.083Z,18.67
2022-10-30T05:31:11.886Z,15.80
2022-10-30T05:33:17.405Z,20.63
2022-10-30T05:35:20.109Z,19.97
2022-10-30T05:37:23.022Z,14.93
2022-10-30T05:39:27.085Z,18.80
2022-10-30T05:41:29.866Z,16.77
2022-10-30T05:43:32.584Z,16.37
2022-10-30T05:45:35.331Z,17.03
2022-10-30T05:47:38.022Z,17.30
2022-10-30T05:49:40.969Z,17.40
2022-10-30T05:51:43.668Z,15.93
2022-10-30T05:53:49.589Z,19.83
2022-10-30T05:55:57.388Z,16.83
2022-10-30T05:58:01.536Z,13.67
2022-10-30T06:00:05.313Z,17.23
2022-10-30T06:02:08.370Z,16.70
2022-10-30T06:04:11.328Z,17.33
2022-10-30T06:06:14.035Z,16.43
2022-10-30T06:08:17.151Z,23.20
2022-10-30T06:10:19.945Z,15.63
2022-10-30T06:12:24.008Z,15.20
2022-10-30T06:14:26.729Z,21.03
2022-10-30T06:16:29.713Z,18.43
2022-10-30T06:18:32.637Z,19.30
2022-10-30T06:20:35.347Z,17.43
2022-10-30T06:22:38.390Z,18.33
2022-10-30T06:24:41.088Z,17.37
2022-10-30T06:26:43.786Z,18.57
2022-10-30T06:28:47.876Z,26.03
2022-10-30T06:30:50.803Z,20.63
2022-10-30T06:32:58.706Z,25.67
2022-10-30T06:35:01.747Z,17.83
2022-10-30T06:37:04.868Z,21.03
2022-10-30T06:39:07.592Z,26.57
2022-10-30T06:41:10.770Z,17.63
2022-10-30T06:43:13.746Z,21.07
2022-10-30T06:45:19.526Z,21.27
2022-10-30T06:47:22.209Z,20.00
2022-10-30T06:49:25.059Z,19.70
2022-10-30T06:51:27.974Z,20.83
2022-10-30T06:53:30.926Z,16.37
2022-10-30T06:55:33.681Z,18.67
2022-10-30T06:57:37.013Z,21.60
2022-10-30T06:59:40.033Z,20.83
2022-10-30T07:01:44.528Z,19.17
2022-10-30T07:03:47.285Z,18.03
2022-10-30T07:05:50.207Z,17.03
2022-10-30T07:07:52.871Z,20.47
2022-10-30T07:09:55.642Z,19.20
2022-10-30T07:12:02.670Z,19.43
2022-10-30T07:14:08.667Z,17.80
2022-10-30T07:16:11.591Z,19.53
2022-10-30T07:18:15.864Z,16.20
2022-10-30T07:20:18.594Z,17.33
2022-10-30T07:22:22.297Z,16.00
2022-10-30T07:24:25.188Z,18.53
2022-10-30T07:26:28.088Z,17.70
2022-10-30T07:28:31.548Z,15.97
2022-10-30T07:30:34.308Z,17.10
2022-10-30T07:32:37.691Z,17.90
2022-10-30T07:34:41.787Z,17.50
2022-10-30T07:36:44.899Z,16.27
2022-10-30T07:38:49.052Z,17.40
2022-10-30T07:40:54.274Z,17.43
2022-10-30T07:42:58.478Z,18.70
2022-10-30T07:45:01.635Z,19.20
2022-10-30T07:47:04.454Z,16.53
2022-10-30T07:49:07.148Z,17.37
2022-10-30T07:51:11.224Z,17.80
2022-10-30T07:53:14.089Z,18.15
2022-10-30T07:55:17.016Z,21.00
2022-10-30T07:57:19.878Z,22.33
2022-10-30T07:59:22.569Z,27.90
2022-10-30T08:01:25.488Z,27.27
2022-10-30T08:03:28.807Z,24.80
2022-10-30T08:05:31.492Z,28.73
2022-10-30T08:07:37.476Z,20.52
2022-10-30T08:09:40.193Z,22.85
2022-10-30T08:11:43.081Z,24.27
2022-10-30T08:13:45.799Z,21.10
2022-10-30T08:15:49.752Z,20.13
2022-10-30T08:17:53.164Z,17.88
2022-10-30T08:19:56.998Z,20.25
2022-10-30T08:22:00.176Z,18.08
2022-10-30T08:24:04.920Z,16.95
2022-10-30T08:26:07.691Z,16.67
2022-10-30T08:28:12.079Z,17.95
2022-10-30T08:30:15.640Z,17.23
2022-10-30T08:32:20.012Z,21.48
2022-10-30T08:34:23.039Z,21.10
2022-10-30T08:36:25.764Z,20.33
2022-10-30T08:38:29.388Z,15.98
2022-10-30T08:40:33.494Z,18.13
2022-10-30T08:42:36.580Z,15.00
2022-10-30T08:44:39.486Z,16.30
2022-10-30T08:46:42.383Z,17.33
2022-10-30T08:48:45.068Z,16.92
2022-10-30T08:50:48.329Z,15.75
2022-10-30T08:52:53.895Z,19.58
2022-10-30T08:54:57.880Z,16.95
2022-10-30T08:57:02.101Z,18.10
2022-10-30T08:59:05.058Z,18.65
2022-10-30T09:01:08.188Z,19.38
2022-10-30T09:03:11.163Z,20.75
2022-10-30T09:05:13.860Z,21.73
2022-10-30T09:07:16.893Z,21.65
2022-10-30T09:09:19.804Z,21.83
2022-10-30T09:11:22.703Z,18.63
2022-10-30T09:13:27.048Z,22.85
2022-10-30T09:15:30.079Z,25.88
2022-10-30T09:17:32.847Z,20.55
2022-10-30T09:19:38.042Z,19.83
2022-10-30T09:21:40.854Z,22.75
2022-10-30T09:23:44.429Z,23.50
2022-10-30T09:25:47.191Z,17.77
2022-10-30T09:27:50.118Z,19.13
2022-10-30T09:29:54.381Z,20.10
2022-10-30T09:31:57.096Z,22.00
2022-10-30T09:33:59.953Z,18.98
2022-10-30T09:36:03.247Z,17.90
2022-10-30T09:38:06.294Z,23.40
2022-10-30T09:40:13.895Z,19.88
2022-10-30T09:42:37.642Z,15.60
2022-10-30T09:45:08.138Z,20.63
2022-10-30T09:47:23.774Z,21.38
2022-10-30T09:49:50.029Z,20.08
2022-10-30T09:52:22.797Z,20.67
2022-10-30T09:54:37.126Z,23.80
2022-10-30T09:56:46.110Z,21.33
2022-10-30T09:59:00.814Z,20.30
2022-10-30T10:01:13.132Z,18.58
2022-10-30T10:03:39.497Z,19.65
2022-10-30T10:05:46.922Z,22.63
2022-10-30T10:07:53.416Z,18.38
2022-10-30T10:10:02.367Z,25.80
2022-10-30T10:12:09.987Z,20.80
2022-10-30T10:14:18.579Z,19.85
2022-10-30T10:16:23.494Z,18.80
2022-10-30T10:18:29.480Z,20.25
2022-10-30T10:20:38.051Z,17.92
2022-10-30T10:22:47.208Z,17.90
2022-10-30T10:24:50.408Z,19.70
2022-10-30T10:26:58.920Z,21.40
2022-10-30T10:29:21.861Z,17.75
2022-10-30T10:31:37.331Z,18.17
2022-10-30T10:33:55.234Z,19.75
2022-10-30T10:36:11.348Z,22.10
2022-10-30T10:38:26.601Z,18.92
2022-10-30T10:40:41.620Z,19.85
2022-10-30T10:42:53.738Z,16.02
2022-10-30T10:45:18.313Z,19.50
2022-10-30T10:47:37.678Z,16.70
2022-10-30T10:49:59.211Z,18.70
2022-10-30T10:52:10.640Z,17.55
2022-10-30T10:54:19.422Z,20.52
2022-10-30T10:56:29.236Z,18.60
2022-10-30T10:58:37.254Z,16.05
2022-10-30T11:00:41.975Z,19.05
2022-10-30T11:02:50.049Z,22.08
2022-10-30T11:04:56.507Z,18.98
2022-10-30T11:07:00.352Z,22.08
2022-10-30T11:09:16.832Z,15.32
2022-10-30T11:11:19.574Z,19.92
2022-10-30T11:13:24.001Z,23.02
2022-10-30T11:15:38.549Z,17.15
2022-10-30T11:17:46.508Z,16.95
2022-10-30T11:19:52.458Z,17.33
2022-10-30T11:21:57.187Z,20.38
2022-10-30T11:24:00.134Z,17.92
2022-10-30T11:26:04.547Z,15.63
2022-10-30T11:28:07.473Z,14.55
2022-10-30T11:30:20.454Z,17.08
2022-10-30T11:32:27.222Z,15.43
2022-10-30T11:34:37.115Z,15.13
2022-10-30T11:36:39.840Z,16.60
2022-10-30T11:38:42.552Z,15.52
2022-10-30T11:40:49.671Z,18.60
2022-10-30T11:43:02.618Z,19.77
2022-10-30T11:45:07.120Z,17.17
2022-10-30T11:47:12.038Z,15.90
2022-10-30T11:49:31.647Z,13.13
2022-10-30T11:51:38.427Z,14.30
2022-10-30T11:53:44.558Z,15.95
2022-10-30T11:55:48.913Z,13.10
2022-10-30T11:57:56.645Z,13.20
2022-10-30T12:00:05.921Z,13.43
2022-10-30T12:02:22.742Z,13.25
2022-10-30T12:04:28.274Z,15.25
2022-10-30T12:06:31.042Z,16.30
2022-10-30T12:08:33.814Z,15.85
2022-10-30T12:10:43.787Z,17.85
2022-10-30T12:12:51.454Z,15.82
2022-10-30T12:14:56.273Z,13.50
2022-10-30T12:17:00.298Z,13.07
2022-10-30T12:19:06.018Z,15.35
2022-10-30T12:21:08.898Z,12.95
2022-10-30T12:23:13.559Z,18.77
2022-10-30T12:25:25.593Z,13.35
2022-10-30T12:27:30.347Z,11.48
2022-10-30T12:30:07.782Z,16.83
2022-10-30T12:32:09.210Z,12.45
2022-10-30T12:34:36.977Z,13.88
2022-10-30T12:36:46.991Z,12.60
2022-10-30T12:38:53.877Z,13.57
2022-10-30T12:41:06.578Z,12.57
2022-10-30T12:43:17.339Z,11.23
2022-10-30T12:45:23.662Z,17.38
2022-10-30T12:47:35.778Z,13.57
2022-10-30T12:49:42.932Z,13.73
2022-10-30T12:51:53.241Z,14.48
2022-10-30T12:54:01.635Z,14.60
2022-10-30T12:56:10.275Z,14.07
2022-10-30T12:58:22.639Z,14.02
2022-10-30T13:00:29.226Z,12.07
2022-10-30T13:02:47.106Z,15.75
2022-10-30T13:04:57.667Z,15.23
2022-10-30T13:07:06.069Z,10.50
2022-10-30T13:09:15.623Z,12.93
2022-10-30T13:11:28.912Z,12.32
2022-10-30T13:13:37.668Z,15.20
2022-10-30T13:15:45.842Z,16.23
2022-10-30T13:17:51.015Z,12.95
2022-10-30T13:19:53.957Z,12.75
2022-10-30T13:22:02.176Z,9.18
2022-10-30T13:24:12.005Z,11.52
2022-10-30T13:26:25.057Z,10.73
2022-10-30T13:28:32.400Z,15.98
2022-10-30T13:30:38.694Z,10.48
2022-10-30T13:32:54.620Z,11.05
2022-10-30T13:35:09.928Z,12.88
2022-10-30T13:37:17.334Z,9.95
2022-10-30T13:39:32.091Z,10.98
2022-10-30T13:41:41.244Z,10.77
2022-10-30T13:43:52.554Z,8.95
2022-10-30T13:46:13.535Z,13.77
2022-10-30T13:48:27.029Z,9.18
2022-10-30T13:50:43.410Z,10.50
2022-10-30T13:52:50.904Z,11.38
2022-10-30T13:55:01.321Z,9.32
2022-10-30T13:57:15.282Z,12.63
2022-10-30T13:59:43.749Z,7.30
2022-10-30T14:02:01.515Z,9.52
2022-10-30T14:04:11.123Z,10.02
2022-10-30T14:06:22.883Z,11.00
2022-10-30T14:08:34.233Z,10.35
2022-10-30T14:10:46.198Z,11.20
2022-10-30T14:12:53.543Z,11.45
2022-10-30T14:14:56.282Z,6.50
2022-10-30T14:17:11.927Z,13.05
2022-10-30T14:19:17.448Z,8.45
2022-10-30T14:21:41.170Z,10.90
2022-10-30T14:23:44.059Z,12.15
2022-10-30T14:26:13.833Z,9.15
2022-10-30T14:28:21.161Z,10.57
2022-10-30T14:30:23.931Z,8.73
2022-10-30T14:32:51.008Z,8.30
2022-10-30T14:35:00.041Z,11.05
2022-10-30T14:37:02.940Z,9.30
2022-10-30T14:39:28.169Z,11.00
2022-10-30T14:41:53.950Z,10.27
2022-10-30T14:44:14.648Z,11.93
2022-10-30T14:46:25.910Z,10.32
2022-10-30T14:48:37.017Z,11.05
2022-10-30T14:50:57.165Z,9.50
2022-10-30T14:53:18.143Z,14.95
2022-10-30T14:55:28.998Z,13.82
2022-10-30T14:57:47.804Z,9.70
2022-10-30T15:00:38.619Z,10.55
2022-10-30T15:02:50.051Z,11.60
2022-10-30T15:05:12.646Z,12.63
2022-10-30T15:07:24.966Z,9.80
2022-10-30T15:09:53.835Z,10.93
2022-10-30T15:12:09.773Z,12.93
2022-10-30T15:14:21.623Z,12.98
2022-10-30T15:16:40.653Z,12.05
2022-10-30T15:18:47.102Z,9.57
2022-10-30T15:20:52.918Z,11.98
2022-10-30T15:22:58.377Z,10.40
2022-10-30T15:25:02.577Z,9.93
2022-10-30T15:27:05.791Z,9.43
2022-10-30T15:29:14.247Z,9.82
2022-10-30T15:31:23.886Z,11.65
2022-10-30T15:33:28.094Z,15.90
2022-10-30T15:35:30.894Z,13.35
2022-10-30T15:37:34.376Z,11.68
2022-10-30T15:39:37.240Z,13.63
2022-10-30T15:41:44.867Z,10.73
2022-10-30T15:43:47.940Z,8.75
2022-10-30T15:45:57.235Z,8.75
2022-10-30T15:48:03.249Z,12.13
2022-10-30T15:50:08.403Z,13.13
2022-10-30T15:52:16.942Z,15.32
2022-10-30T15:54:22.277Z,10.27
2022-10-30T15:56:28.917Z,11.38
2022-10-30T15:58:35.653Z,11.13
2022-10-30T16:00:39.452Z,8.30
2022-10-30T16:02:42.228Z,10.23
2022-10-30T16:04:45.290Z,9.52
2022-10-30T16:06:54.436Z,10.65
2022-10-30T16:08:58.160Z,8.20
2022-10-30T16:11:01.100Z,10.40
2022-10-30T16:13:05.016Z,11.93
2022-10-30T16:15:17.902Z,13.18
2022-10-30T16:17:21.010Z,9.45
2022-10-30T16:19:29.169Z,10.35
2022-10-30T16:21:34.989Z,12.85
2022-10-30T16:23:42.167Z,11.68
2022-10-30T16:25:47.492Z,11.30
2022-10-30T16:27:50.593Z,14.45
2022-10-30T16:29:57.014Z,11.70
2022-10-30T16:32:01.728Z,13.73
2022-10-30T16:34:10.215Z,15.10
2022-10-30T16:36:16.818Z,11.75
2022-10-30T16:38:21.010Z,16.17
2022-10-30T16:40:28.168Z,20.10
2022-10-30T16:42:30.981Z,19.38
2022-10-30T16:44:35.010Z,19.50
2022-10-30T16:46:40.530Z,17.67
2022-10-30T16:48:46.971Z,18.48
2022-10-30T16:50:50.710Z,14.50
2022-10-30T16:52:53.457Z,17.27
2022-10-30T16:55:02.297Z,16.65
2022-10-30T16:57:15.910Z,15.68
2022-10-30T16:59:25.627Z,18.58
2022-10-30T17:01:29.473Z,21.67
2022-10-30T17:03:37.460Z,29.08
2022-10-30T17:05:43.456Z,21.13
2022-10-30T17:07:55.582Z,20.60
2022-10-30T17:09:58.619Z,18.58
2022-10-30T17:12:12.794Z,18.45
2022-10-30T17:14:19.952Z,14.32
2022-10-30T17:16:25.706Z,16.88
2022-10-30T17:18:33.000Z,17.33
2022-10-30T17:20:36.154Z,16.23
2022-10-30T17:22:39.518Z,15.93
2022-10-30T17:24:42.468Z,18.38
2022-10-30T17:26:56.737Z,11.93
2022-10-30T17:29:00.884Z,18.48
2022-10-30T17:31:22.911Z,14.63
2022-10-30T17:33:36.927Z,16.35
2022-10-30T17:35:39.886Z,16.95
2022-10-30T17:37:43.087Z,13.80
2022-10-30T17:39:45.801Z,17.55
2022-10-30T17:41:48.854Z,15.52
2022-10-30T17:43:53.567Z,16.40
2022-10-30T17:45:58.309Z,17.25
2022-10-30T17:48:01.486Z,12.32
2022-10-30T17:50:05.374Z,15.50
2022-10-30T17:52:10.954Z,16.92
2022-10-30T17:54:14.689Z,17.40
2022-10-30T17:56:20.691Z,14.57
2022-10-30T17:58:23.713Z,14.75
2022-10-30T18:00:26.526Z,12.82
2022-10-30T18:02:30.780Z,22.50
2022-10-30T18:04:33.744Z,14.13
2022-10-30T18:06:36.487Z,17.67
2022-10-30T18:08:39.228Z,16.10
2022-10-30T18:10:42.163Z,14.85
2022-10-30T18:12:45.424Z,17.40
2022-10-30T18:14:48.129Z,13.50
2022-10-30T18:16:54.494Z,14.05
2022-10-30T18:18:59.545Z,14.60
2022-10-30T18:21:02.485Z,16.13
2022-10-30T18:23:05.537Z,17.52
2022-10-30T18:25:17.590Z,16.30
2022-10-30T18:27:20.255Z,12.57
2022-10-30T18:29:23.102Z,16.00
2022-10-30T18:31:25.833Z,12.93
2022-10-30T18:33:28.590Z,16.25
2022-10-30T18:35:36.086Z,19.38
2022-10-30T18:37:38.949Z,14.32
2022-10-30T18:39:41.683Z,13.07
2022-10-30T18:41:45.906Z,17.50
2022-10-30T18:43:48.582Z,14.88
2022-10-30T18:45:51.419Z,15.98
2022-10-30T18:47:55.613Z,14.48
2022-10-30T18:49:58.285Z,17.58
2022-10-30T18:52:02.612Z,12.68
2022-10-30T18:54:12.918Z,15.55
2022-10-30T18:56:15.833Z,16.50
2022-10-30T18:58:18.602Z,17.92
2022-10-30T19:00:25.047Z,14.68
2022-10-30T19:02:27.842Z,16.20
2022-10-30T19:04:30.795Z,14.88
2022-10-30T19:06:34.070Z,14.95
2022-10-30T19:08:38.299Z,13.93
2022-10-30T19:10:44.176Z,13.65
2022-10-30T19:13:10.988Z,17.20
2022-10-30T19:15:15.993Z,13.95
2022-10-30T19:17:18.714Z,16.98
2022-10-30T19:19:21.472Z,17.02
2022-10-30T19:21:26.360Z,15.27
2022-10-30T19:23:29.228Z,14.57
2022-10-30T19:25:35.781Z,11.43
2022-10-30T19:27:38.477Z,14.88
2022-10-30T19:29:41.396Z,9.85
2022-10-30T19:31:44.149Z,14.25
2022-10-30T19:33:51.290Z,11.33
2022-10-30T19:35:58.882Z,13.07
2022-10-30T19:38:02.089Z,13.07
2022-10-30T19:40:26.348Z,11.90
2022-10-30T19:42:30.472Z,12.98
2022-10-30T19:44:33.401Z,16.27
2022-10-30T19:46:37.106Z,10.67
2022-10-30T19:48:56.854Z,15.70
2022-10-30T19:51:01.717Z,13.00
2022-10-30T19:53:06.049Z,19.07
2022-10-30T19:55:09.502Z,13.47
2022-10-30T19:57:15.072Z,12.97
2022-10-30T19:59:19.232Z,14.13
2022-10-30T20:01:22.057Z,10.50
2022-10-30T20:03:24.887Z,15.07
2022-10-30T20:05:30.149Z,11.23
2022-10-30T20:07:32.858Z,14.47
2022-10-30T20:09:35.635Z,12.97
2022-10-30T20:11:38.354Z,11.00
2022-10-30T20:13:41.246Z,14.30
2022-10-30T20:15:45.655Z,12.10
2022-10-30T20:17:48.442Z,10.93
2022-10-30T20:19:51.295Z,10.23
2022-10-30T20:21:54.340Z,11.10
2022-10-30T20:23:57.129Z,13.80
2022-10-30T20:26:02.647Z,14.50
2022-10-30T20:28:19.600Z,12.03
2022-10-30T20:30:27.881Z,13.60
2022-10-30T20:32:34.129Z,11.63
2022-10-30T20:34:36.864Z,13.23
2022-10-30T20:36:39.789Z,10.03
2022-10-30T20:38:42.510Z,13.40
2022-10-30T20:40:45.575Z,11.03
2022-10-30T20:44:55.945Z,15.47
2022-10-30T20:46:58.828Z,12.33
2022-10-30T20:49:16.780Z,13.30
2022-10-30T20:51:21.258Z,15.10
2022-10-30T20:53:23.986Z,11.00
2022-10-30T20:55:26.793Z,13.50
2022-10-30T20:57:29.651Z,14.75
2022-10-30T20:59:32.551Z,15.23
2022-10-30T21:01:35.411Z,13.37
2022-10-30T21:03:38.260Z,10.90
2022-10-30T21:05:44.974Z,11.73
2022-10-30T21:07:48.466Z,11.30
2022-10-30T21:09:51.159Z,15.27
2022-10-30T21:11:54.882Z,12.07
2022-10-30T21:13:58.661Z,14.03
2022-10-30T21:16:02.512Z,11.93
2022-10-30T21:18:09.616Z,12.07
2022-10-30T21:20:13.408Z,13.27
2022-10-30T21:22:19.473Z,18.13
2022-10-30T21:24:22.511Z,13.87
2022-10-30T21:26:25.448Z,11.80
2022-10-30T21:28:28.109Z,10.50
2022-10-30T21:30:31.409Z,14.33
2022-10-30T21:32:34.065Z,12.53
2022-10-30T21:34:36.825Z,12.60
2022-10-30T21:36:39.816Z,14.83
2022-10-30T21:38:45.221Z,14.73
2022-10-30T21:40:55.533Z,14.00
2022-10-30T21:43:01.383Z,15.73
2022-10-30T21:45:11.149Z,17.60
2022-10-30T21:47:16.492Z,14.33
2022-10-30T21:49:20.029Z,16.13
2022-10-30T21:51:24.002Z,14.00
2022-10-30T21:53:28.295Z,16.43
2022-10-30T21:55:32.343Z,16.73
2022-10-30T21:57:35.206Z,16.67
2022-10-30T21:59:40.637Z,14.77
2022-10-30T22:01:43.846Z,14.77
2022-10-30T22:03:47.088Z,15.77
2022-10-30T22:05:49.802Z,13.63
2022-10-30T22:07:53.053Z,13.07
2022-10-30T22:09:55.739Z,16.07
2022-10-30T22:11:59.717Z,15.47
2022-10-30T22:14:05.348Z,22.00
2022-10-30T22:16:12.574Z,13.53
2022-10-30T22:18:16.301Z,11.63
2022-10-30T22:20:19.435Z,18.93
2022-10-30T22:22:22.780Z,17.10
2022-10-30T22:24:25.622Z,11.83
2022-10-30T22:26:28.869Z,16.53
2022-10-30T22:28:36.122Z,12.80
2022-10-30T22:30:38.861Z,15.27
2022-10-30T22:32:42.199Z,12.17
2022-10-30T22:34:45.178Z,15.97
2022-10-30T22:36:48.157Z,14.00
2022-10-30T22:38:56.220Z,15.17
2022-10-30T22:41:09.340Z,16.37
2022-10-30T22:43:14.180Z,18.73
2022-10-30T22:45:18.790Z,12.37
2022-10-30T22:47:21.694Z,15.13
2022-10-30T22:49:24.352Z,11.67
2022-10-30T22:51:27.383Z,12.87
2022-10-30T22:53:31.672Z,12.70
2022-10-30T22:55:34.585Z,14.87
2022-10-30T22:57:37.397Z,14.00
2022-10-30T22:59:40.068Z,10.67
2022-10-30T23:01:44.495Z,16.47
2022-10-30T23:03:47.567Z,15.13
2022-10-30T23:05:59.633Z,12.77
2022-10-30T23:08:02.843Z,14.57
2022-10-30T23:10:07.353Z,18.60
2022-10-30T23:12:12.339Z,11.03
2022-10-30T23:14:15.743Z,11.33
2022-10-30T23:16:22.069Z,16.93
2022-10-30T23:18:26.858Z,12.17
2022-10-30T23:20:29.735Z,13.50
2022-10-30T23:22:32.615Z,11.97
2022-10-30T23:24:35.301Z,12.13
2022-10-30T23:26:37.987Z,9.63
2022-10-30T23:28:41.380Z,15.10
2022-10-30T23:30:44.631Z,12.60
2022-10-30T23:32:48.928Z,13.67
2022-10-30T23:34:53.183Z,10.77
2022-10-30T23:36:59.137Z,17.10
2022-10-30T23:39:07.839Z,13.20
2022-10-30T23:41:12.605Z,15.27
2022-10-30T23:43:17.252Z,11.90
2022-10-30T23:45:19.989Z,12.17
2022-10-30T23:47:22.914Z,12.00
2022-10-30T23:49:28.981Z,12.47
2022-10-30T23:51:35.742Z,16.07
2022-10-30T23:53:38.754Z,11.80
2022-10-30T23:55:41.425Z,9.03
2022-10-30T23:57:44.713Z,13.90
2022-10-30T23:59:47.865Z,8.07
